Time;durP1;ratioP1;P1;durP2;ratioP2;P2;SDS_P1;SDS_P2;PMS_P1;PMS_P2;Temp;Humidity;BMP_temperature;BMP_pressure;BME280_temperature;BME280_humidity;BME280_pressure;Samples;Min_cycle;Max_cycle;Signal;HPM_P1;HPM_P2
2024/01/21 00:01:05;;;;;;;0.70;0.70;;;;;;;2.01;100.00;100699.47;5064227;28;20021;-72
2024/01/21 00:03:30;;;;;;;1.67;1.50;;;;;;;2.03;100.00;100706.38;5064891;28;20541;-73
2024/01/21 00:05:55;;;;;;;3.15;2.45;;;;;;;2.02;100.00;100702.09;5080018;28;20036;-72
2024/01/21 00:08:21;;;;;;;3.03;1.42;;;;;;;1.96;100.00;100687.41;5064316;28;20043;-73
2024/01/21 00:10:46;;;;;;;4.78;1.02;;;;;;;1.91;100.00;100691.50;5063541;28;20029;-72
2024/01/21 00:13:11;;;;;;;0.68;0.68;;;;;;;1.93;100.00;100692.41;5064365;28;20083;-72
2024/01/21 00:15:37;;;;;;;2.83;1.08;;;;;;;1.93;100.00;100702.66;5064458;28;20033;-72
2024/01/21 00:18:02;;;;;;;3.42;1.73;;;;;;;1.93;100.00;100697.53;5064699;28;20039;-72
2024/01/21 00:20:30;;;;;;;0.50;0.50;;;;;;;1.92;100.00;100690.69;5064484;28;20049;-73
2024/01/21 00:22:57;;;;;;;3.22;1.33;;;;;;;1.92;100.00;100693.25;5063023;28;20051;-73
2024/01/21 00:25:22;;;;;;;37.40;1.70;;;;;;;1.91;100.00;100685.50;5064604;28;20017;-72
2024/01/21 00:27:48;;;;;;;1.33;1.23;;;;;;;1.92;100.00;100693.25;5064242;28;20458;-71
2024/01/21 00:30:13;;;;;;;8.10;2.05;;;;;;;1.91;100.00;100673.59;5064549;28;20033;-71
2024/01/21 00:32:38;;;;;;;3.38;1.98;;;;;;;1.90;100.00;100686.34;5064172;28;20025;-72
2024/01/21 00:35:04;;;;;;;14.82;1.10;;;;;;;1.91;100.00;100677.84;5064232;28;20028;-71
2024/01/21 00:37:30;;;;;;;6.00;4.90;;;;;;;1.89;100.00;100674.34;5062914;28;20029;-71
2024/01/21 00:39:55;;;;;;;3.95;1.73;;;;;;;1.93;100.00;100664.25;5063093;28;20024;-71
2024/01/21 00:42:21;;;;;;;4.03;0.98;;;;;;;1.91;100.00;100673.59;5064095;28;20036;-71
2024/01/21 00:44:46;;;;;;;24.73;2.92;;;;;;;1.87;100.00;100666.59;5066257;28;20040;-70
2024/01/21 00:47:11;;;;;;;2.50;1.70;;;;;;;1.88;100.00;100678.63;5067772;28;20131;-71
2024/01/21 00:49:40;;;;;;;0.70;0.55;;;;;;;1.92;100.00;100675.31;5067802;28;20112;-71
2024/01/21 00:52:05;;;;;;;1.73;1.63;;;;;;;1.93;100.00;100678.75;5067823;28;20039;-71
2024/01/21 00:54:32;;;;;;;2.65;2.20;;;;;;;1.93;100.00;100679.59;5067422;28;20053;-71
2024/01/21 00:56:57;;;;;;;2.72;1.08;;;;;;;1.91;100.00;100688.94;5066476;28;20025;-71
2024/01/21 00:59:23;;;;;;;0.60;0.60;;;;;;;1.87;100.00;100676.84;5067796;28;20094;-72
2024/01/21 01:01:48;;;;;;;2.00;1.02;;;;;;;1.95;100.00;100685.66;5067557;28;20025;-71
2024/01/21 01:04:13;;;;;;;0.50;0.50;;;;;;;1.91;100.00;100677.84;5067730;28;20044;-71
2024/01/21 01:06:39;;;;;;;4.55;1.42;;;;;;;1.89;100.00;100687.16;5067747;28;20108;-71
2024/01/21 01:09:04;;;;;;;3.17;2.95;;;;;;;1.91;100.00;100690.63;5067430;28;20090;-71
2024/01/21 01:11:30;;;;;;;0.70;0.70;;;;;;;1.88;100.00;100678.63;5067547;28;20020;-71
2024/01/21 01:13:56;;;;;;;0.80;0.80;;;;;;;1.91;100.00;100685.50;5067513;28;20032;-70
2024/01/21 01:16:22;;;;;;;1.75;1.00;;;;;;;1.89;100.00;100680.34;5066206;28;20025;-70
2024/01/21 01:18:51;;;;;;;1.60;1.20;;;;;;;1.83;100.00;100675.91;5067740;28;20056;-70
2024/01/21 01:21:16;;;;;;;0.80;0.80;;;;;;;1.90;100.00;100679.50;5067095;28;20047;-70
2024/01/21 01:23:41;;;;;;;3.60;3.28;;;;;;;1.88;100.00;100691.41;5067333;28;20025;-70
2024/01/21 01:26:07;;;;;;;1.25;1.20;;;;;;;1.83;100.00;100693.84;5067368;28;20052;-71
2024/01/21 01:28:33;;;;;;;1.10;1.08;;;;;;;1.88;100.00;100687.97;5067239;28;20124;-71
2024/01/21 01:30:58;;;;;;;3.70;2.97;;;;;;;1.88;100.00;100700.78;5067109;28;20143;-71
2024/01/21 01:33:24;;;;;;;0.98;0.93;;;;;;;1.83;100.00;100667.34;5066999;28;20033;-70
2024/01/21 01:35:50;;;;;;;2.53;0.70;;;;;;;1.87;100.00;100692.22;5065784;28;20495;-71
2024/01/21 01:38:15;;;;;;;3.58;2.17;;;;;;;1.87;100.00;100686.25;5066837;28;20526;-71
2024/01/21 01:40:41;;;;;;;0.88;0.88;;;;;;;1.87;100.00;100697.34;5067069;28;20024;-71
2024/01/21 01:43:06;;;;;;;8.68;2.40;;;;;;;1.83;100.00;100695.50;5066815;28;20416;-71
2024/01/21 01:45:32;;;;;;;0.77;0.77;;;;;;;1.81;100.00;100694.59;5066681;28;20040;-71
2024/01/21 01:47:58;;;;;;;2.88;1.35;;;;;;;1.82;100.00;100688.66;5066652;28;20029;-71
2024/01/21 01:50:25;;;;;;;1.35;1.00;;;;;;;1.85;100.00;100693.88;5065338;28;20024;-70
2024/01/21 01:52:52;;;;;;;1.10;1.02;;;;;;;1.88;100.00;100688.84;5066379;28;20051;-70
2024/01/21 01:55:18;;;;;;;0.70;0.70;;;;;;;1.84;100.00;100699.81;5066422;28;20124;-70
2024/01/21 01:57:47;;;;;;;0.52;0.52;;;;;;;1.77;100.00;100683.41;5066527;28;20410;-71
2024/01/21 02:00:14;;;;;;;3.30;2.38;;;;;;;1.82;100.00;100686.94;5065324;28;20064;-71
2024/01/21 02:02:41;;;;;;;1.05;1.05;;;;;;;1.81;100.00;100686.91;5066492;28;20518;-70
2024/01/21 02:05:07;;;;;;;2.28;2.05;;;;;;;1.79;100.00;100693.69;5066556;28;20052;-70
2024/01/21 02:07:32;;;;;;;0.50;0.50;;;;;;;1.76;100.00;100684.19;5066024;28;20098;-70
2024/01/21 02:09:59;;;;;;;1.10;1.10;;;;;;;1.73;100.00;100678.97;5065054;28;20021;-71
2024/01/21 02:12:25;;;;;;;1.42;1.33;;;;;;;1.71;100.00;100675.53;5066325;28;20017;-70
2024/01/21 02:14:50;;;;;;;2.72;2.10;;;;;;;1.77;100.00;100685.06;5066282;28;20021;-69
2024/01/21 02:17:16;;;;;;;1.80;1.70;;;;;;;1.75;100.00;100684.16;5066119;28;20020;-70
2024/01/21 02:19:41;;;;;;;4.97;4.32;;;;;;;1.72;100.00;100680.69;5066015;28;20025;-69
2024/01/21 02:22:06;;;;;;;1.52;1.42;;;;;;;1.67;100.00;100669.44;5066083;28;20025;-69
2024/01/21 02:24:32;;;;;;;1.63;1.52;;;;;;;1.68;100.00;100672.84;5065948;28;20017;-69
2024/01/21 02:26:58;;;;;;;1.20;1.10;;;;;;;1.64;100.00;100671.88;5066098;28;20031;-70
2024/01/21 02:29:23;;;;;;;0.77;0.77;;;;;;;1.65;100.00;100660.81;5066002;28;20021;-70
2024/01/21 02:31:52;;;;;;;5.05;1.52;;;;;;;1.64;100.00;100656.53;5066257;28;20032;-70
2024/01/21 02:34:17;;;;;;;1.63;1.52;;;;;;;1.58;100.00;100671.69;5065883;28;20032;-70
2024/01/21 02:36:43;;;;;;;4.57;1.63;;;;;;;1.59;100.00;100655.50;5065706;28;20020;-70
2024/01/21 02:39:09;;;;;;;0.70;0.70;;;;;;;1.59;100.00;100648.69;5065731;28;20040;-70
2024/01/21 02:41:34;;;;;;;3.65;2.03;;;;;;;1.56;100.00;100652.84;5065863;28;20028;-70
2024/01/21 02:44:01;;;;;;;8.23;2.75;;;;;;;1.56;100.00;100658.84;5065718;28;20025;-70
2024/01/21 02:46:26;;;;;;;8.73;1.90;;;;;;;1.48;100.00;100645.81;5065422;28;20027;-70
2024/01/21 02:48:52;;;;;;;1.73;1.63;;;;;;;1.52;100.00;100659.53;5065434;28;20080;-69
2024/01/21 02:51:17;;;;;;;2.15;1.52;;;;;;;1.52;100.00;100654.41;5065558;28;20053;-69
2024/01/21 02:53:42;;;;;;;1.83;1.73;;;;;;;1.56;100.00;100665.63;5064577;28;20037;-70
2024/01/21 02:56:08;;;;;;;0.73;0.73;;;;;;;1.48;100.00;100667.94;5065584;28;20104;-70
2024/01/21 02:58:33;;;;;;;0.57;0.57;;;;;;;1.51;100.00;100662.94;5065502;28;20052;-69
2024/01/21 03:00:58;;;;;;;0.45;0.45;;;;;;;1.50;100.00;100666.31;5064230;28;20042;-69
2024/01/21 03:03:24;;;;;;;0.40;0.40;;;;;;;1.51;100.00;100679.97;5065244;28;20036;-69
2024/01/21 03:05:49;;;;;;;0.40;0.40;;;;;;;1.52;100.00;100662.09;5065636;28;20123;-70
2024/01/21 03:08:14;;;;;;;1.67;1.58;;;;;;;1.46;100.00;100657.66;5064672;28;20021;-69
2024/01/21 03:10:40;;;;;;;0.50;0.50;;;;;;;1.44;100.00;100668.66;5065198;28;20023;-69
2024/01/21 03:13:07;;;;;;;0.50;0.50;;;;;;;1.40;100.00;100659.13;5064183;28;20029;-70
2024/01/21 03:15:32;;;;;;;0.40;0.40;;;;;;;1.42;100.00;100648.13;5064930;28;20025;-69
2024/01/21 03:17:58;;;;;;;0.50;0.50;;;;;;;1.38;100.00;100651.41;5065106;28;20017;-69
2024/01/21 03:20:24;;;;;;;0.50;0.50;;;;;;;1.41;100.00;100641.28;5080585;28;20036;-69
2024/01/21 03:22:50;;;;;;;0.50;0.50;;;;;;;1.43;100.00;100639.66;5064968;28;20017;-69
2024/01/21 03:25:15;;;;;;;0.40;0.40;;;;;;;1.43;100.00;100629.41;5065207;28;20025;-68
2024/01/21 03:27:40;;;;;;;0.43;0.43;;;;;;;1.44;100.00;100625.16;5063810;28;20083;-69
2024/01/21 03:30:06;;;;;;;1.85;1.23;;;;;;;1.30;100.00;100612.78;5065316;28;20025;-69
2024/01/21 03:32:32;;;;;;;0.40;0.40;;;;;;;1.34;100.00;100624.84;5065008;28;20029;-69
2024/01/21 03:34:57;;;;;;;0.50;0.50;;;;;;;1.36;100.00;100627.47;5065163;28;20436;-68
2024/01/21 03:37:22;;;;;;;0.40;0.40;;;;;;;1.40;100.00;100637.00;5063660;28;20028;-69
2024/01/21 03:39:48;;;;;;;0.50;0.50;;;;;;;1.32;100.00;100634.19;5064871;28;20028;-69
2024/01/21 03:42:14;;;;;;;0.70;0.70;;;;;;;1.37;100.00;100629.22;5064792;28;20025;-69
2024/01/21 03:44:39;;;;;;;0.50;0.50;;;;;;;1.30;100.00;100627.25;5064640;28;20384;-69
2024/01/21 03:47:04;;;;;;;0.50;0.50;;;;;;;1.29;100.00;100626.41;5064911;28;20032;-69
2024/01/21 03:49:30;;;;;;;2.95;1.42;;;;;;;1.30;100.00;100617.91;5063399;28;20025;-69
2024/01/21 03:51:55;;;;;;;0.40;0.40;;;;;;;1.17;100.00;100613.19;5064814;28;20024;-69
2024/01/21 03:54:21;;;;;;;0.47;0.47;;;;;;;1.18;100.00;100632.84;5064512;28;20401;-69
2024/01/21 03:56:46;;;;;;;0.50;0.50;;;;;;;1.11;100.00;100626.66;5065232;28;20056;-69
2024/01/21 03:59:11;;;;;;;0.50;0.50;;;;;;;1.07;100.00;100624.81;5064695;28;20431;-69
2024/01/21 04:01:44;;;;;;;0.75;0.73;;;;;;;1.04;100.00;100617.03;5063330;28;20035;-69
2024/01/21 04:04:13;;;;;;;0.50;0.50;;;;;;;0.95;100.00;100610.78;5063432;28;20042;-69
2024/01/21 04:06:43;;;;;;;0.50;0.50;;;;;;;0.94;100.00;100614.16;5064616;28;20029;-69
2024/01/21 04:09:15;;;;;;;0.98;0.57;;;;;;;0.94;100.00;100615.84;5064777;28;20028;-69
2024/01/21 04:11:42;;;;;;;0.40;0.40;;;;;;;0.86;100.00;100613.03;5064446;28;20025;-68
2024/01/21 04:14:08;;;;;;;0.50;0.50;;;;;;;0.79;100.00;100604.28;5064852;28;20041;-69
2024/01/21 04:16:33;;;;;;;1.73;1.67;;;;;;;0.77;100.00;100612.72;5064664;28;20032;-69
2024/01/21 04:18:58;;;;;;;0.45;0.45;;;;;;;0.63;100.00;100604.53;5064062;28;20024;-69
2024/01/21 04:21:24;;;;;;;0.50;0.50;;;;;;;0.61;100.00;100607.91;5068514;28;20032;-68
2024/01/21 04:23:49;;;;;;;0.50;0.50;;;;;;;0.57;100.00;100605.19;5068111;28;20089;-69
2024/01/21 04:26:15;;;;;;;0.40;0.40;;;;;;;0.44;100.00;100603.88;5068498;28;20048;-69
2024/01/21 04:28:40;;;;;;;1.75;1.65;;;;;;;0.47;100.00;100602.31;5066973;28;20025;-69
2024/01/21 04:31:06;;;;;;;0.50;0.50;;;;;;;0.43;100.00;100599.59;5066987;28;20032;-69
2024/01/21 04:33:31;;;;;;;0.57;0.57;;;;;;;0.37;100.00;100579.78;5068237;28;20025;-70
2024/01/21 04:35:57;;;;;;;0.40;0.40;;;;;;;0.30;100.00;100588.06;5068246;28;20028;-69
2024/01/21 04:38:23;;;;;;;1.15;1.15;;;;;;;0.28;100.00;100585.47;5068049;28;20041;-70
2024/01/21 04:40:49;;;;;;;0.45;0.45;;;;;;;0.24;100.00;100579.34;5068284;28;20544;-69
2024/01/21 04:43:15;;;;;;;0.40;0.40;;;;;;;0.26;100.00;100584.50;5068174;28;20100;-69
2024/01/21 04:45:40;;;;;;;0.40;0.40;;;;;;;0.17;100.00;100576.53;5067992;28;20023;-69
2024/01/21 04:48:06;;;;;;;0.50;0.50;;;;;;;0.23;100.00;100580.19;5068164;28;20031;-69
2024/01/21 04:50:31;;;;;;;0.50;0.50;;;;;;;0.15;100.00;100576.47;5067822;28;20028;-69
2024/01/21 04:52:56;;;;;;;0.60;0.60;;;;;;;0.15;100.00;100579.03;5067746;28;20627;-68
2024/01/21 04:55:22;;;;;;;0.40;0.40;;;;;;;0.15;100.00;100575.59;5067753;28;20059;-69
2024/01/21 04:57:47;;;;;;;0.50;0.50;;;;;;;0.16;100.00;100569.69;5067829;28;20480;-68
2024/01/21 05:00:13;;;;;;;0.70;0.70;;;;;;;0.14;100.00;100572.19;5067939;28;20028;-69
2024/01/21 05:02:38;;;;;;;0.40;0.40;;;;;;;0.18;100.00;100573.16;5066404;28;20373;-69
2024/01/21 05:05:04;;;;;;;1.05;1.05;;;;;;;0.11;100.00;100574.63;5066508;28;20032;-68
2024/01/21 05:07:29;;;;;;;0.50;0.50;;;;;;;0.16;100.00;100570.53;5067670;28;20079;-68
2024/01/21 05:09:55;;;;;;;0.60;0.60;;;;;;;0.19;100.00;100574.91;5067501;28;20043;-68
2024/01/21 05:12:20;;;;;;;2.20;2.10;;;;;;;0.19;100.00;100569.78;5066091;28;20051;-68
2024/01/21 05:14:45;;;;;;;0.50;0.50;;;;;;;0.15;100.00;100573.91;5066266;28;20047;-68
2024/01/21 05:17:11;;;;;;;0.40;0.40;;;;;;;0.15;100.00;100565.38;5067449;28;20431;-69
2024/01/21 05:19:37;;;;;;;0.40;0.40;;;;;;;0.15;100.00;100568.81;5066097;28;20056;-69
2024/01/21 05:22:02;;;;;;;0.93;0.93;;;;;;;0.13;100.00;100570.41;5082793;28;20025;-68
2024/01/21 05:24:28;;;;;;;0.40;0.40;;;;;;;0.10;100.00;100560.97;5067254;28;20032;-69
2024/01/21 05:26:53;;;;;;;1.15;1.15;;;;;;;0.08;100.00;100567.69;5067198;28;20029;-69
2024/01/21 05:29:18;;;;;;;0.50;0.50;;;;;;;0.08;100.00;100557.50;5067034;28;20025;-68
2024/01/21 05:31:45;;;;;;;0.55;0.55;;;;;;;-0.07;100.00;100533.94;5065428;28;20092;-68
2024/01/21 05:34:10;;;;;;;0.40;0.40;;;;;;;0.06;100.00;100559.13;5067203;28;20025;-68
2024/01/21 05:36:35;;;;;;;0.50;0.50;;;;;;;0.19;100.00;100560.44;5065854;28;20093;-68
2024/01/21 05:39:01;;;;;;;0.50;0.50;;;;;;;0.02;100.00;100548.75;5066922;28;20100;-68
2024/01/21 05:41:28;;;;;;;0.50;0.50;;;;;;;0.04;100.00;100553.09;5067216;28;20092;-68
2024/01/21 05:43:54;;;;;;;1.70;1.65;;;;;;;0.02;100.00;100546.22;5066893;28;20039;-68
2024/01/21 05:46:19;;;;;;;0.40;0.40;;;;;;;0.15;100.00;100542.41;5067058;28;20025;-69
2024/01/21 05:48:44;;;;;;;0.82;0.82;;;;;;;0.07;100.00;100555.75;5066995;28;20150;-69
2024/01/21 05:51:10;;;;;;;0.50;0.50;;;;;;;0.15;100.00;100533.06;5066840;28;20029;-68
2024/01/21 05:53:35;;;;;;;1.90;1.75;;;;;;;0.13;100.00;100533.84;5066353;28;20158;-68
2024/01/21 05:56:00;;;;;;;0.50;0.50;;;;;;;0.07;100.00;100525.13;5066752;28;20024;-69
2024/01/21 05:58:26;;;;;;;0.40;0.40;;;;;;;0.03;100.00;100535.16;5066624;28;20032;-68
2024/01/21 06:00:51;;;;;;;1.15;1.15;;;;;;;0.02;100.00;100507.91;5066810;28;20025;-69
2024/01/21 06:03:16;;;;;;;0.70;0.70;;;;;;;0.04;100.00;100527.56;5066598;28;20060;-69
2024/01/21 06:05:42;;;;;;;0.50;0.50;;;;;;;0.06;100.00;100519.97;5066664;28;20029;-70
2024/01/21 06:08:07;;;;;;;0.80;0.80;;;;;;;0.05;100.00;100521.63;5066386;28;20024;-69
2024/01/21 06:10:32;;;;;;;0.60;0.60;;;;;;;0.02;100.00;100520.69;5066510;28;20020;-69
2024/01/21 06:12:58;;;;;;;1.30;1.30;;;;;;;-0.01;100.00;100509.53;5066122;28;20084;-69
2024/01/21 06:15:23;;;;;;;0.40;0.40;;;;;;;0.02;100.00;100506.22;5066635;28;20029;-68
2024/01/21 06:17:51;;;;;;;1.27;1.27;;;;;;;0.18;100.00;100514.41;5066338;28;20526;-68
2024/01/21 06:20:17;;;;;;;0.43;0.43;;;;;;;0.15;100.00;100501.53;5066443;28;20084;-68
2024/01/21 06:22:42;;;;;;;0.50;0.50;;;;;;;0.04;100.00;100496.06;5066163;28;20071;-67
2024/01/21 06:25:08;;;;;;;0.50;0.50;;;;;;;-0.08;100.00;100489.69;5066149;28;20044;-68
2024/01/21 06:27:33;;;;;;;1.52;1.42;;;;;;;-0.11;100.00;100489.56;5064781;28;20032;-69
2024/01/21 06:30:13;;;;;;;0.50;0.50;;;;;;;-0.05;100.00;100491.50;5066053;28;20036;-68
2024/01/21 06:32:38;;;;;;;0.68;0.68;;;;;;;-0.04;100.00;100489.00;5065841;28;20058;-69
2024/01/21 06:35:05;;;;;;;0.50;0.50;;;;;;;-0.10;100.00;100473.47;5066005;28;20024;-68
2024/01/21 06:37:30;;;;;;;0.50;0.50;;;;;;;-0.15;100.00;100485.19;5081419;28;20021;-69
2024/01/21 06:39:56;;;;;;;0.50;0.50;;;;;;;-0.08;100.00;100482.03;5064313;28;20028;-70
2024/01/21 06:42:21;;;;;;;0.60;0.60;;;;;;;-0.01;100.00;100478.03;5063735;28;20097;-69
2024/01/21 06:44:46;;;;;;;0.50;0.50;;;;;;;-0.15;100.00;100470.75;5065975;28;20112;-70
2024/01/21 06:47:12;;;;;;;0.40;0.40;;;;;;;-0.15;100.00;100470.75;5065625;28;20021;-69
2024/01/21 06:49:37;;;;;;;0.40;0.40;;;;;;;-0.14;100.00;100480.13;5065896;28;20029;-70
2024/01/21 06:52:04;;;;;;;0.40;0.40;;;;;;;-0.18;100.00;100475.75;5065556;28;20017;-68
2024/01/21 06:54:29;;;;;;;0.40;0.40;;;;;;;-0.15;100.00;100467.31;5065284;28;20086;-69
2024/01/21 06:56:55;;;;;;;0.40;0.40;;;;;;;-0.18;100.00;100472.31;5065595;28;20032;-69
2024/01/21 06:59:20;;;;;;;0.60;0.60;;;;;;;-0.01;100.00;100465.25;5065577;28;20108;-69
2024/01/21 07:01:45;;;;;;;1.35;1.33;;;;;;;-0.18;100.00;100455.31;5065587;28;20029;-69
2024/01/21 07:04:12;;;;;;;0.45;0.45;;;;;;;-0.21;100.00;100444.13;5065221;28;20025;-70
2024/01/21 07:06:39;;;;;;;0.85;0.85;;;;;;;-0.17;100.00;100454.50;5065361;28;20017;-69
2024/01/21 07:09:04;;;;;;;0.50;0.50;;;;;;;-0.19;100.00;100440.81;5065394;28;20427;-69
2024/01/21 07:11:35;;;;;;;0.65;0.65;;;;;;;-0.20;100.00;100438.19;5064100;28;20543;-70
2024/01/21 07:14:01;;;;;;;0.50;0.50;;;;;;;-0.22;100.00;100435.59;5065136;28;20385;-70
2024/01/21 07:16:26;;;;;;;0.50;0.50;;;;;;;-0.26;100.00;100432.06;5065315;28;20017;-71
2024/01/21 07:18:51;;;;;;;0.50;0.50;;;;;;;-0.04;99.84;100444.72;5065233;28;20028;-70
2024/01/21 07:21:17;;;;;;;0.50;0.50;;;;;;;-0.22;100.00;100415.19;5063873;28;20032;-70
2024/01/21 07:23:42;;;;;;;2.67;2.55;;;;;;;-0.26;100.00;100414.19;5063806;28;20027;-70
2024/01/21 07:26:08;;;;;;;0.50;0.50;;;;;;;-0.23;100.00;100418.56;5063784;28;20381;-71
2024/01/21 07:28:33;;;;;;;0.43;0.43;;;;;;;-0.18;99.84;100408.50;5065178;28;20020;-70
2024/01/21 07:30:58;;;;;;;0.50;0.50;;;;;;;-0.23;99.25;100397.25;5065144;28;20047;-70
2024/01/21 07:33:24;;;;;;;0.50;0.50;;;;;;;-0.24;99.43;100393.00;5064948;28;20029;-70
2024/01/21 07:35:50;;;;;;;0.60;0.60;;;;;;;-0.29;99.44;100393.66;5063594;28;20025;-69
2024/01/21 07:38:17;;;;;;;0.60;0.60;;;;;;;-0.30;99.33;100394.50;5064966;28;20036;-69
2024/01/21 07:40:42;;;;;;;2.05;1.95;;;;;;;-0.33;98.89;100375.66;5064969;28;20052;-69
2024/01/21 07:43:10;;;;;;;1.08;1.05;;;;;;;-0.22;98.39;100394.78;5064853;28;20025;-72
2024/01/21 07:45:36;;;;;;;0.50;0.50;;;;;;;-0.30;98.90;100378.31;5065213;28;20021;-73
2024/01/21 07:48:01;;;;;;;0.50;0.50;;;;;;;-0.32;99.00;100378.25;5064779;28;20055;-73
2024/01/21 07:50:26;;;;;;;0.50;0.50;;;;;;;-0.18;98.10;100377.88;5063618;28;20017;-72
2024/01/21 07:52:52;;;;;;;0.43;0.43;;;;;;;-0.19;97.78;100368.50;5065127;28;20027;-70
2024/01/21 07:55:17;;;;;;;0.50;0.50;;;;;;;-0.18;97.45;100367.69;5068532;28;20087;-72
2024/01/21 07:57:59;;;;;;;0.50;0.50;;;;;;;-0.22;97.42;100376.06;5082404;28;20735;-71
2024/01/21 08:00:24;;;;;;;0.50;0.50;;;;;;;-0.22;97.49;100364.16;5082515;28;20088;-69
2024/01/21 08:02:49;;;;;;;0.50;0.50;;;;;;;-0.26;97.82;100368.25;5082391;28;20050;-69
2024/01/21 08:05:15;;;;;;;0.50;0.50;;;;;;;-0.23;98.10;100356.44;5082623;28;20029;-69
2024/01/21 08:07:40;;;;;;;0.50;0.50;;;;;;;-0.13;96.80;100356.81;5080914;28;20013;-68
2024/01/21 08:10:06;;;;;;;0.50;0.50;;;;;;;-0.19;97.33;100358.31;5081971;28;20060;-68
2024/01/21 08:12:31;;;;;;;0.63;0.63;;;;;;;-0.23;97.92;100361.53;5080715;28;20052;-69
2024/01/21 08:14:57;;;;;;;0.50;0.50;;;;;;;-0.15;97.48;100360.13;5082151;28;20028;-70
2024/01/21 08:17:22;;;;;;;0.50;0.50;;;;;;;-0.01;95.78;100343.63;5080503;28;20020;-69
2024/01/21 08:19:48;;;;;;;0.40;0.40;;;;;;;-0.04;96.03;100353.72;5082108;28;20031;-70
2024/01/21 08:22:13;;;;;;;2.67;2.58;;;;;;;0.04;95.16;100328.44;5080362;28;20048;-71
2024/01/21 08:24:38;;;;;;;1.02;1.02;;;;;;;0.08;94.67;100337.94;5081802;28;20029;-70
2024/01/21 08:27:06;;;;;;;0.40;0.40;;;;;;;0.05;94.52;100329.31;5081780;28;20024;-68
2024/01/21 08:29:32;;;;;;;0.50;0.50;;;;;;;0.03;94.96;100313.97;5081664;28;20388;-69
2024/01/21 08:31:59;;;;;;;0.50;0.50;;;;;;;0.04;94.72;100304.59;5081710;28;20021;-71
2024/01/21 08:34:25;;;;;;;0.75;0.75;;;;;;;0.10;93.37;100290.34;5081863;28;20025;-70
2024/01/21 08:36:50;;;;;;;0.50;0.50;;;;;;;0.33;90.96;100289.34;5097158;28;20075;-73
2024/01/21 08:39:15;;;;;;;0.95;0.95;;;;;;;0.54;88.82;100296.84;5081527;28;20036;-71
2024/01/21 08:41:41;;;;;;;0.50;0.50;;;;;;;0.23;90.48;100285.63;5081557;28;20028;-72
2024/01/21 08:44:07;;;;;;;0.50;0.50;;;;;;;0.29;90.71;100274.78;5081664;28;20024;-73
2024/01/21 08:46:32;;;;;;;0.50;0.50;;;;;;;0.47;88.48;100282.13;5079982;28;20017;-70
2024/01/21 08:48:58;;;;;;;0.50;0.50;;;;;;;0.26;90.57;100274.69;5081416;28;20029;-72
2024/01/21 08:51:23;;;;;;;0.50;0.50;;;;;;;0.31;91.02;100278.22;5080036;28;20024;-70
2024/01/21 08:53:56;;;;;;;0.70;0.70;;;;;;;0.27;91.57;100272.16;5096932;28;20302;-71
2024/01/21 08:56:25;;;;;;;0.60;0.60;;;;;;;0.32;91.77;100272.31;5081034;28;20076;-73
2024/01/21 08:58:51;;;;;;;0.50;0.50;;;;;;;0.55;88.76;100254.25;5081075;28;20412;-72
2024/01/21 09:01:16;;;;;;;0.50;0.50;;;;;;;0.31;90.23;100258.66;5081291;28;20461;-72
2024/01/21 09:03:42;;;;;;;0.50;0.50;;;;;;;0.40;89.40;100250.41;5080980;28;20025;-69
2024/01/21 09:06:08;;;;;;;0.50;0.50;;;;;;;0.40;90.38;100247.84;5081051;28;20042;-68
2024/01/21 09:08:34;;;;;;;0.50;0.50;;;;;;;0.43;90.40;100232.63;5070569;28;20028;-69
2024/01/21 09:10:59;;;;;;;0.50;0.50;;;;;;;0.38;90.66;100249.50;5067831;28;20029;-69
2024/01/21 09:13:24;;;;;;;0.50;0.50;;;;;;;0.35;90.41;100223.88;5066285;28;20029;-69
2024/01/21 09:15:50;;;;;;;0.50;0.50;;;;;;;0.40;90.95;100254.66;5067748;28;20036;-67
2024/01/21 09:18:15;;;;;;;2.03;1.92;;;;;;;0.39;91.06;100194.16;5067673;28;20035;-69
2024/01/21 09:20:40;;;;;;;0.50;0.50;;;;;;;0.42;91.09;100210.47;5067605;28;20528;-67
2024/01/21 09:23:06;;;;;;;0.40;0.40;;;;;;;0.43;90.65;100196.84;5067385;28;20021;-68
2024/01/21 09:25:31;;;;;;;0.45;0.45;;;;;;;0.55;89.86;100208.28;5067593;28;20025;-70
2024/01/21 09:27:56;;;;;;;0.60;0.60;;;;;;;0.59;86.88;100167.53;5067543;28;20050;-67
2024/01/21 09:30:22;;;;;;;0.50;0.50;;;;;;;0.68;87.21;100189.94;5067393;28;20021;-67
2024/01/21 09:32:47;;;;;;;0.50;0.50;;;;;;;0.56;88.54;100199.81;5065864;28;20035;-67
2024/01/21 09:35:12;;;;;;;0.50;0.50;;;;;;;0.61;89.05;100204.22;5066061;28;20051;-66
2024/01/21 09:37:38;;;;;;;0.50;0.50;;;;;;;0.79;86.43;100184.25;5065817;28;20099;-64
2024/01/21 09:40:03;;;;;;;0.60;0.60;;;;;;;0.82;84.88;100204.78;5067232;28;20025;-65
2024/01/21 09:42:29;;;;;;;0.68;0.68;;;;;;;0.65;86.54;100181.31;5067056;28;20254;-66
2024/01/21 09:44:54;;;;;;;0.45;0.45;;;;;;;0.97;82.88;100172.00;5065715;28;20072;-68
2024/01/21 09:47:20;;;;;;;0.50;0.50;;;;;;;0.78;84.59;100178.28;5067076;28;20057;-68
2024/01/21 09:49:47;;;;;;;0.50;0.50;;;;;;;0.77;85.02;100184.19;5065701;28;20022;-67
2024/01/21 09:52:14;;;;;;;0.50;0.50;;;;;;;0.77;85.00;100171.41;5066898;28;20021;-67
2024/01/21 09:54:40;;;;;;;0.50;0.50;;;;;;;0.71;85.69;100176.38;5066742;28;20392;-69
2024/01/21 09:57:06;;;;;;;0.50;0.50;;;;;;;0.87;85.17;100159.78;5065508;28;20123;-68
2024/01/21 09:59:31;;;;;;;0.93;0.93;;;;;;;0.78;85.58;100154.41;5066615;28;20021;-69
2024/01/21 10:01:57;;;;;;;0.40;0.40;;;;;;;0.80;84.51;100122.09;5066986;28;20055;-68
2024/01/21 10:04:22;;;;;;;0.60;0.60;;;;;;;1.08;80.93;100099.81;5066692;28;20036;-68
2024/01/21 10:06:50;;;;;;;0.50;0.50;;;;;;;1.07;79.75;100118.53;5066502;28;20021;-68
2024/01/21 10:09:21;;;;;;;0.52;0.52;;;;;;;0.83;81.81;100111.97;5066624;28;20017;-67
2024/01/21 10:11:57;;;;;;;0.70;0.70;;;;;;;1.26;78.19;100093.44;5066714;28;20127;-67
2024/01/21 10:14:27;;;;;;;0.50;0.50;;;;;;;0.95;79.70;100106.28;5065454;28;20028;-67
2024/01/21 10:16:53;;;;;;;0.50;0.50;;;;;;;0.77;82.69;100102.41;5064870;28;20028;-68
2024/01/21 10:19:33;;;;;;;0.50;0.50;;;;;;;1.14;79.45;100097.41;5065703;28;20385;-68
2024/01/21 10:22:14;;;;;;;0.47;0.47;;;;;;;1.12;80.37;100081.16;5066568;28;20047;-69
2024/01/21 10:24:41;;;;;;;1.73;1.63;;;;;;;1.12;79.42;100086.25;5066292;28;20029;-68
2024/01/21 10:27:10;;;;;;;0.50;0.50;;;;;;;1.06;79.51;100101.44;5066746;28;20029;-69
2024/01/21 10:29:43;;;;;;;0.50;0.50;;;;;;;1.08;81.05;100095.56;5066064;28;20025;-67
2024/01/21 10:32:15;;;;;;;0.70;0.70;;;;;;;1.21;80.49;100095.88;5064818;28;20029;-68
2024/01/21 10:34:44;;;;;;;6.03;1.48;;;;;;;1.29;80.27;100099.50;5064836;28;20030;-68
2024/01/21 10:37:12;;;;;;;0.63;0.63;;;;;;;1.34;78.88;100074.88;5065944;28;20025;-67
2024/01/21 10:39:37;;;;;;;0.95;0.95;;;;;;;1.20;79.51;100056.63;5066000;28;20020;-68
2024/01/21 10:42:05;;;;;;;0.75;0.75;;;;;;;1.31;80.39;100048.38;5066054;28;20469;-69
2024/01/21 10:44:30;;;;;;;1.00;1.00;;;;;;;1.50;78.92;100047.13;5066010;28;20024;-68
2024/01/21 10:46:57;;;;;;;1.13;1.08;;;;;;;1.64;76.15;100041.44;5065993;28;20100;-68
2024/01/21 10:49:22;;;;;;;0.52;0.52;;;;;;;1.50;78.05;100052.22;5065928;28;20077;-69
2024/01/21 10:51:52;;;;;;;5.63;2.25;;;;;;;1.58;77.98;100049.84;5065597;28;20032;-68
2024/01/21 10:54:17;;;;;;;0.50;0.50;;;;;;;1.52;78.80;100034.34;5064093;28;20021;-70
2024/01/21 10:56:43;;;;;;;1.98;1.88;;;;;;;1.59;79.00;100031.09;5065323;28;20041;-68
2024/01/21 10:59:10;;;;;;;0.73;0.73;;;;;;;1.64;79.33;100031.19;5064097;28;20528;-68
2024/01/21 11:01:39;;;;;;;1.50;1.40;;;;;;;1.64;80.23;99987.69;5065507;28;20024;-68
2024/01/21 11:04:12;;;;;;;4.47;2.92;;;;;;;1.82;79.97;100007.69;5065404;28;20029;-68
2024/01/21 11:06:41;;;;;;;0.90;0.90;;;;;;;1.85;80.02;99997.53;5065055;28;20081;-68
2024/01/21 11:09:08;;;;;;;0.73;0.73;;;;;;;1.92;79.38;100008.72;5064865;28;20099;-69
2024/01/21 11:11:41;;;;;;;0.80;0.80;;;;;;;1.89;78.88;100014.66;5064123;28;20021;-68
2024/01/21 11:14:34;;;;;;;1.08;1.08;;;;;;;1.88;78.49;99997.59;5065190;28;20016;-67
2024/01/21 11:17:02;;;;;;;0.50;0.50;;;;;;;1.98;75.20;99994.38;5064978;28;20071;-69
2024/01/21 11:19:52;;;;;;;0.60;0.60;;;;;;;1.83;76.66;100000.06;5065374;28;20025;-69
2024/01/21 11:22:23;;;;;;;7.20;0.95;;;;;;;1.71;76.89;99994.69;5061873;28;20028;-66